Guadalupe Pass, TX

7:28 AM MST on February 13, 2016 (GMT -0700)
Guadalupe Pass | | Change Station
CLOSE
Current Station
Airport
Location: Guadalupe Pass,
Elevation: 5453 ft
Nearby Weather Stations

Elev 5453 ft 31.83 °N, 104.81 °W | Updated 37 minutes ago

Clear
Clear
53 °F
Feels Like 53 °F
N
7
Wind Variable Wind from SW

Today
High -- | Low -- °F
--% Chance of Precip.
Yesterday
High -- | Low -- °F
Precip. -- in
Pressure 30.21 in
Visibility 10.0 miles
Clouds Clear
Dew Point 17 °F
Humidity 24%
Rainfall 0.00 in
Snow Depth Not available.
6:43 AM 5:43 PM
Waxing Crescent, 31% visible
METAR KGDP 131351Z AUTO 22006KT 10SM CLR 12/M08 A3033 RMK AO2 SLP230 T01171083
Pressure 30.21 in
Visibility 10.0 miles
Clouds Clear
Dew Point 17 °F
Humidity 24%
Rainfall 0.00 in
Snow Depth Not available.
6:43 AM 5:43 PM
Waxing Crescent, 31% visible
METAR KGDP 131351Z AUTO 22006KT 10SM CLR 12/M08 A3033 RMK AO2 SLP230 T01171083

10-Day Weather Forecast

Almanac

Astronomy

Feb. 13, 2016 Rise Set
Actual Time
Civil Twilight
Nautical Twilight
Astronomical Twilight
Moon
Length of Visible Light
Length of Day
Tomorrow will be .
, % of the Moon is Illuminated

Today's Extremes

State Highs State Lows

Community

WunderPhotos

Upload Photos

1,892,558 photos uploaded!

WunderBlog® & News

Nearby

Air Quality

  Air Quality AQ Index Pollutant
Not available.

Snow Depth

Station Depth Elevation

Earthquake Activity

City Distance Mag. Time & Date
Minimum magnitude displayed is 2.5.

Coastal Water Temperatures

Place Temperature

Stations

Nearby Weather Stations

Station Location Temp. Windchill Dew Point Humidity Wind Precip. Elev Updated Type
                   

Watches & Warnings

There are currently no watches in effect.